sensor_id;sensor_type;location;lat;lon;timestamp;P1;durP1;ratioP1;P2;durP2;ratioP2
10469;SDS011;5282;47.052;15.458;2023-06-14T00:01:56;3.20;;;3.10;;
10469;SDS011;5282;47.052;15.458;2023-06-14T00:04:23;3.50;;;3.40;;
10469;SDS011;5282;47.052;15.458;2023-06-14T00:06:51;3.53;;;3.40;;
10469;SDS011;5282;47.052;15.458;2023-06-14T00:09:20;3.37;;;3.27;;
10469;SDS011;5282;47.052;15.458;2023-06-14T00:11:47;3.00;;;2.90;;
10469;SDS011;5282;47.052;15.458;2023-06-14T00:14:15;3.47;;;3.30;;
10469;SDS011;5282;47.052;15.458;2023-06-14T00:16:42;3.30;;;3.10;;
10469;SDS011;5282;47.052;15.458;2023-06-14T00:19:09;3.33;;;3.17;;
10469;SDS011;5282;47.052;15.458;2023-06-14T00:21:36;3.40;;;3.20;;
10469;SDS011;5282;47.052;15.458;2023-06-14T00:24:03;3.40;;;3.30;;
10469;SDS011;5282;47.052;15.458;2023-06-14T00:26:32;3.30;;;3.20;;
10469;SDS011;5282;47.052;15.458;2023-06-14T00:28:59;3.30;;;3.10;;
10469;SDS011;5282;47.052;15.458;2023-06-14T00:31:26;3.50;;;3.30;;
10469;SDS011;5282;47.052;15.458;2023-06-14T00:33:53;3.10;;;3.00;;
10469;SDS011;5282;47.052;15.458;2023-06-14T00:36:20;3.50;;;3.40;;
10469;SDS011;5282;47.052;15.458;2023-06-14T00:38:49;3.00;;;2.90;;
10469;SDS011;5282;47.052;15.458;2023-06-14T00:41:16;3.37;;;3.27;;
10469;SDS011;5282;47.052;15.458;2023-06-14T00:43:44;3.03;;;2.93;;
10469;SDS011;5282;47.052;15.458;2023-06-14T00:46:11;3.57;;;3.47;;
10469;SDS011;5282;47.052;15.458;2023-06-14T00:48:37;4.00;;;3.30;;
10469;SDS011;5282;47.052;15.458;2023-06-14T00:51:05;3.57;;;3.43;;
10469;SDS011;5282;47.052;15.458;2023-06-14T00:53:32;3.23;;;3.13;;
10469;SDS011;5282;47.052;15.458;2023-06-14T00:56:01;3.30;;;3.20;;
10469;SDS011;5282;47.052;15.458;2023-06-14T00:58:28;3.10;;;3.00;;
10469;SDS011;5282;47.052;15.458;2023-06-14T01:00:57;3.40;;;3.30;;
10469;SDS011;5282;47.052;15.458;2023-06-14T01:03:23;3.57;;;3.37;;
10469;SDS011;5282;47.052;15.458;2023-06-14T01:05:51;3.70;;;3.50;;
10469;SDS011;5282;47.052;15.458;2023-06-14T01:08:28;3.10;;;2.93;;
10469;SDS011;5282;47.052;15.458;2023-06-14T01:11:05;3.43;;;3.23;;
10469;SDS011;5282;47.052;15.458;2023-06-14T01:13:38;3.27;;;3.07;;
10469;SDS011;5282;47.052;15.458;2023-06-14T01:16:10;2.97;;;2.87;;
10469;SDS011;5282;47.052;15.458;2023-06-14T01:18:38;3.27;;;3.17;;
10469;SDS011;5282;47.052;15.458;2023-06-14T01:21:19;4.00;;;3.70;;
10469;SDS011;5282;47.052;15.458;2023-06-14T01:23:48;3.40;;;3.10;;
10469;SDS011;5282;47.052;15.458;2023-06-14T01:26:18;3.00;;;2.90;;
10469;SDS011;5282;47.052;15.458;2023-06-14T01:28:46;3.47;;;3.37;;
10469;SDS011;5282;47.052;15.458;2023-06-14T01:31:16;3.63;;;3.50;;
10469;SDS011;5282;47.052;15.458;2023-06-14T01:33:47;3.23;;;3.13;;
10469;SDS011;5282;47.052;15.458;2023-06-14T01:36:16;3.50;;;3.40;;
10469;SDS011;5282;47.052;15.458;2023-06-14T01:38:44;3.20;;;2.97;;
10469;SDS011;5282;47.052;15.458;2023-06-14T01:41:14;3.30;;;3.20;;
10469;SDS011;5282;47.052;15.458;2023-06-14T01:43:42;3.30;;;3.20;;
10469;SDS011;5282;47.052;15.458;2023-06-14T01:46:10;3.37;;;3.27;;
10469;SDS011;5282;47.052;15.458;2023-06-14T01:48:39;3.20;;;3.10;;
10469;SDS011;5282;47.052;15.458;2023-06-14T01:51:07;3.57;;;3.30;;
10469;SDS011;5282;47.052;15.458;2023-06-14T01:53:33;3.30;;;3.20;;
10469;SDS011;5282;47.052;15.458;2023-06-14T01:56:01;3.60;;;3.40;;
10469;SDS011;5282;47.052;15.458;2023-06-14T01:58:32;3.40;;;3.30;;
10469;SDS011;5282;47.052;15.458;2023-06-14T02:01:00;3.57;;;3.47;;
10469;SDS011;5282;47.052;15.458;2023-06-14T02:03:28;3.93;;;3.47;;
10469;SDS011;5282;47.052;15.458;2023-06-14T02:05:55;3.50;;;3.20;;
10469;SDS011;5282;47.052;15.458;2023-06-14T02:08:22;3.50;;;3.30;;
10469;SDS011;5282;47.052;15.458;2023-06-14T02:10:49;3.50;;;3.30;;
10469;SDS011;5282;47.052;15.458;2023-06-14T02:13:16;3.60;;;3.40;;
10469;SDS011;5282;47.052;15.458;2023-06-14T02:15:44;3.40;;;3.17;;
10469;SDS011;5282;47.052;15.458;2023-06-14T02:18:12;3.27;;;3.17;;
10469;SDS011;5282;47.052;15.458;2023-06-14T02:20:39;3.20;;;3.10;;
10469;SDS011;5282;47.052;15.458;2023-06-14T02:23:07;3.20;;;3.00;;
10469;SDS011;5282;47.052;15.458;2023-06-14T02:25:34;3.17;;;3.07;;
10469;SDS011;5282;47.052;15.458;2023-06-14T02:28:01;3.17;;;3.07;;
10469;SDS011;5282;47.052;15.458;2023-06-14T02:30:28;3.50;;;3.30;;
10469;SDS011;5282;47.052;15.458;2023-06-14T02:32:56;3.30;;;3.20;;
10469;SDS011;5282;47.052;15.458;2023-06-14T02:35:24;3.60;;;3.40;;
10469;SDS011;5282;47.052;15.458;2023-06-14T02:37:52;3.80;;;3.67;;
10469;SDS011;5282;47.052;15.458;2023-06-14T02:40:19;3.20;;;3.00;;
10469;SDS011;5282;47.052;15.458;2023-06-14T02:42:46;3.40;;;3.10;;
10469;SDS011;5282;47.052;15.458;2023-06-14T02:45:13;3.17;;;3.07;;
10469;SDS011;5282;47.052;15.458;2023-06-14T02:47:40;3.03;;;2.93;;
10469;SDS011;5282;47.052;15.458;2023-06-14T02:50:09;3.43;;;3.33;;
10469;SDS011;5282;47.052;15.458;2023-06-14T02:52:37;3.40;;;3.20;;
10469;SDS011;5282;47.052;15.458;2023-06-14T02:55:07;3.20;;;2.90;;
10469;SDS011;5282;47.052;15.458;2023-06-14T02:57:37;3.20;;;3.03;;
10469;SDS011;5282;47.052;15.458;2023-06-14T03:00:04;3.00;;;2.90;;
10469;SDS011;5282;47.052;15.458;2023-06-14T03:02:35;3.80;;;3.70;;
10469;SDS011;5282;47.052;15.458;2023-06-14T03:05:01;3.40;;;3.20;;
10469;SDS011;5282;47.052;15.458;2023-06-14T03:07:31;3.20;;;3.10;;
10469;SDS011;5282;47.052;15.458;2023-06-14T03:10:00;3.30;;;3.10;;
10469;SDS011;5282;47.052;15.458;2023-06-14T03:12:28;3.00;;;2.90;;
10469;SDS011;5282;47.052;15.458;2023-06-14T03:14:55;3.23;;;3.03;;
10469;SDS011;5282;47.052;15.458;2023-06-14T03:17:22;3.40;;;3.20;;
10469;SDS011;5282;47.052;15.458;2023-06-14T03:19:49;3.70;;;3.33;;
10469;SDS011;5282;47.052;15.458;2023-06-14T03:22:16;3.03;;;2.93;;
10469;SDS011;5282;47.052;15.458;2023-06-14T03:24:44;3.10;;;2.90;;
10469;SDS011;5282;47.052;15.458;2023-06-14T03:27:11;3.00;;;2.90;;
10469;SDS011;5282;47.052;15.458;2023-06-14T03:29:38;3.17;;;2.97;;
10469;SDS011;5282;47.052;15.458;2023-06-14T03:32:05;3.20;;;3.10;;
10469;SDS011;5282;47.052;15.458;2023-06-14T03:34:32;3.00;;;2.90;;
10469;SDS011;5282;47.052;15.458;2023-06-14T03:37:00;3.10;;;3.00;;
10469;SDS011;5282;47.052;15.458;2023-06-14T03:39:26;3.67;;;3.43;;
10469;SDS011;5282;47.052;15.458;2023-06-14T03:41:55;3.30;;;3.00;;
10469;SDS011;5282;47.052;15.458;2023-06-14T03:44:22;3.00;;;2.90;;
10469;SDS011;5282;47.052;15.458;2023-06-14T03:46:49;3.27;;;3.07;;
10469;SDS011;5282;47.052;15.458;2023-06-14T03:49:16;3.17;;;3.00;;
10469;SDS011;5282;47.052;15.458;2023-06-14T03:51:44;2.90;;;2.80;;
10469;SDS011;5282;47.052;15.458;2023-06-14T03:54:11;3.23;;;2.90;;
10469;SDS011;5282;47.052;15.458;2023-06-14T03:56:37;2.90;;;2.70;;
10469;SDS011;5282;47.052;15.458;2023-06-14T03:59:06;3.10;;;2.97;;
10469;SDS011;5282;47.052;15.458;2023-06-14T04:01:32;3.30;;;3.10;;
10469;SDS011;5282;47.052;15.458;2023-06-14T04:03:59;3.20;;;3.00;;
10469;SDS011;5282;47.052;15.458;2023-06-14T04:06:27;3.60;;;3.30;;
10469;SDS011;5282;47.052;15.458;2023-06-14T04:08:58;3.63;;;3.33;;
10469;SDS011;5282;47.052;15.458;2023-06-14T04:11:29;2.83;;;2.73;;
10469;SDS011;5282;47.052;15.458;2023-06-14T04:13:57;3.20;;;3.10;;
10469;SDS011;5282;47.052;15.458;2023-06-14T04:16:28;3.40;;;3.30;;
10469;SDS011;5282;47.052;15.458;2023-06-14T04:18:55;3.77;;;3.47;;
10469;SDS011;5282;47.052;15.458;2023-06-14T04:21:23;2.87;;;2.70;;
10469;SDS011;5282;47.052;15.458;2023-06-14T04:23:51;3.10;;;3.00;;
10469;SDS011;5282;47.052;15.458;2023-06-14T04:26:22;3.33;;;3.20;;
10469;SDS011;5282;47.052;15.458;2023-06-14T04:28:54;3.17;;;3.00;;
10469;SDS011;5282;47.052;15.458;2023-06-14T04:31:22;3.10;;;3.00;;
10469;SDS011;5282;47.052;15.458;2023-06-14T04:33:51;3.20;;;3.00;;
10469;SDS011;5282;47.052;15.458;2023-06-14T04:36:19;3.37;;;3.10;;
10469;SDS011;5282;47.052;15.458;2023-06-14T04:38:46;3.13;;;2.97;;
10469;SDS011;5282;47.052;15.458;2023-06-14T04:41:14;3.63;;;3.53;;
10469;SDS011;5282;47.052;15.458;2023-06-14T04:43:41;3.17;;;3.07;;
10469;SDS011;5282;47.052;15.458;2023-06-14T04:46:08;3.07;;;2.97;;
10469;SDS011;5282;47.052;15.458;2023-06-14T04:48:36;3.20;;;3.10;;
10469;SDS011;5282;47.052;15.458;2023-06-14T04:51:07;3.73;;;3.37;;
10469;SDS011;5282;47.052;15.458;2023-06-14T04:53:34;3.17;;;3.07;;
10469;SDS011;5282;47.052;15.458;2023-06-14T04:56:02;3.73;;;3.20;;
10469;SDS011;5282;47.052;15.458;2023-06-14T04:58:29;3.33;;;3.23;;
10469;SDS011;5282;47.052;15.458;2023-06-14T05:00:57;3.13;;;3.03;;
10469;SDS011;5282;47.052;15.458;2023-06-14T05:03:25;3.13;;;3.03;;
10469;SDS011;5282;47.052;15.458;2023-06-14T05:05:52;3.30;;;3.10;;
10469;SDS011;5282;47.052;15.458;2023-06-14T05:08:23;4.10;;;3.80;;
10469;SDS011;5282;47.052;15.458;2023-06-14T05:10:50;3.60;;;3.40;;
10469;SDS011;5282;47.052;15.458;2023-06-14T05:13:17;3.50;;;3.30;;
10469;SDS011;5282;47.052;15.458;2023-06-14T05:15:44;3.33;;;3.07;;
10469;SDS011;5282;47.052;15.458;2023-06-14T05:18:11;3.60;;;3.50;;
10469;SDS011;5282;47.052;15.458;2023-06-14T05:20:38;3.97;;;3.80;;
10469;SDS011;5282;47.052;15.458;2023-06-14T05:23:07;3.50;;;3.40;;
10469;SDS011;5282;47.052;15.458;2023-06-14T05:25:42;3.30;;;3.20;;
10469;SDS011;5282;47.052;15.458;2023-06-14T05:28:10;3.70;;;3.40;;
10469;SDS011;5282;47.052;15.458;2023-06-14T05:30:37;3.53;;;3.43;;
10469;SDS011;5282;47.052;15.458;2023-06-14T05:33:05;3.83;;;3.63;;
10469;SDS011;5282;47.052;15.458;2023-06-14T05:35:32;3.77;;;3.67;;
10469;SDS011;5282;47.052;15.458;2023-06-14T05:38:03;3.60;;;3.40;;
10469;SDS011;5282;47.052;15.458;2023-06-14T05:40:31;3.80;;;3.70;;
10469;SDS011;5282;47.052;15.458;2023-06-14T05:42:59;3.90;;;3.70;;
10469;SDS011;5282;47.052;15.458;2023-06-14T05:45:26;3.70;;;3.50;;
10469;SDS011;5282;47.052;15.458;2023-06-14T05:47:55;3.80;;;3.63;;
10469;SDS011;5282;47.052;15.458;2023-06-14T05:50:22;3.80;;;3.70;;
10469;SDS011;5282;47.052;15.458;2023-06-14T05:52:49;3.53;;;3.33;;
10469;SDS011;5282;47.052;15.458;2023-06-14T05:55:16;3.80;;;3.60;;
10469;SDS011;5282;47.052;15.458;2023-06-14T05:57:43;3.70;;;3.60;;
10469;SDS011;5282;47.052;15.458;2023-06-14T06:00:12;3.97;;;3.80;;
10469;SDS011;5282;47.052;15.458;2023-06-14T06:02:41;3.90;;;3.63;;
10469;SDS011;5282;47.052;15.458;2023-06-14T06:05:09;3.30;;;3.10;;
10469;SDS011;5282;47.052;15.458;2023-06-14T06:07:38;3.27;;;3.17;;
10469;SDS011;5282;47.052;15.458;2023-06-14T06:10:06;3.60;;;3.50;;
10469;SDS011;5282;47.052;15.458;2023-06-14T06:12:34;3.50;;;3.30;;
10469;SDS011;5282;47.052;15.458;2023-06-14T06:15:01;3.40;;;3.30;;
10469;SDS011;5282;47.052;15.458;2023-06-14T06:17:29;3.83;;;3.70;;
10469;SDS011;5282;47.052;15.458;2023-06-14T06:19:56;3.50;;;3.40;;
10469;SDS011;5282;47.052;15.458;2023-06-14T06:22:23;4.13;;;3.83;;
10469;SDS011;5282;47.052;15.458;2023-06-14T06:24:52;3.83;;;3.73;;
10469;SDS011;5282;47.052;15.458;2023-06-14T06:27:19;3.60;;;3.50;;
10469;SDS011;5282;47.052;15.458;2023-06-14T06:29:46;3.60;;;3.50;;
10469;SDS011;5282;47.052;15.458;2023-06-14T06:32:16;4.07;;;3.77;;
10469;SDS011;5282;47.052;15.458;2023-06-14T06:34:44;4.23;;;4.03;;
10469;SDS011;5282;47.052;15.458;2023-06-14T06:37:11;3.77;;;3.67;;
10469;SDS011;5282;47.052;15.458;2023-06-14T06:39:39;4.33;;;3.87;;
10469;SDS011;5282;47.052;15.458;2023-06-14T06:42:06;4.07;;;3.77;;
10469;SDS011;5282;47.052;15.458;2023-06-14T06:44:33;3.73;;;3.63;;
10469;SDS011;5282;47.052;15.458;2023-06-14T06:47:00;4.07;;;3.87;;
10469;SDS011;5282;47.052;15.458;2023-06-14T06:49:27;4.37;;;4.00;;
10469;SDS011;5282;47.052;15.458;2023-06-14T06:52:03;4.10;;;3.90;;
10469;SDS011;5282;47.052;15.458;2023-06-14T06:54:31;3.57;;;3.47;;
10469;SDS011;5282;47.052;15.458;2023-06-14T06:57:00;3.73;;;3.43;;
10469;SDS011;5282;47.052;15.458;2023-06-14T06:59:27;3.30;;;3.20;;
10469;SDS011;5282;47.052;15.458;2023-06-14T07:01:54;3.20;;;3.00;;
10469;SDS011;5282;47.052;15.458;2023-06-14T07:04:21;3.40;;;3.20;;
10469;SDS011;5282;47.052;15.458;2023-06-14T07:06:48;3.37;;;3.17;;
10469;SDS011;5282;47.052;15.458;2023-06-14T07:09:16;3.63;;;3.43;;
10469;SDS011;5282;47.052;15.458;2023-06-14T07:11:47;3.40;;;3.30;;
10469;SDS011;5282;47.052;15.458;2023-06-14T07:14:14;3.57;;;3.40;;
10469;SDS011;5282;47.052;15.458;2023-06-14T07:16:41;3.43;;;3.30;;
10469;SDS011;5282;47.052;15.458;2023-06-14T07:19:08;3.60;;;3.40;;
10469;SDS011;5282;47.052;15.458;2023-06-14T07:21:35;3.47;;;3.30;;
10469;SDS011;5282;47.052;15.458;2023-06-14T07:24:04;3.80;;;3.50;;
10469;SDS011;5282;47.052;15.458;2023-06-14T07:26:34;3.43;;;3.30;;
10469;SDS011;5282;47.052;15.458;2023-06-14T07:29:01;4.13;;;3.93;;
10469;SDS011;5282;47.052;15.458;2023-06-14T07:31:29;4.00;;;3.70;;
10469;SDS011;5282;47.052;15.458;2023-06-14T07:33:57;3.90;;;3.70;;
10469;SDS011;5282;47.052;15.458;2023-06-14T07:36:24;4.07;;;3.87;;
10469;SDS011;5282;47.052;15.458;2023-06-14T07:38:50;3.97;;;3.77;;
10469;SDS011;5282;47.052;15.458;2023-06-14T07:41:17;4.10;;;3.90;;
10469;SDS011;5282;47.052;15.458;2023-06-14T07:43:48;4.10;;;3.80;;
10469;SDS011;5282;47.052;15.458;2023-06-14T07:46:15;4.20;;;4.00;;
10469;SDS011;5282;47.052;15.458;2023-06-14T07:48:42;4.07;;;3.80;;
10469;SDS011;5282;47.052;15.458;2023-06-14T07:51:09;3.80;;;3.60;;
10469;SDS011;5282;47.052;15.458;2023-06-14T07:53:36;3.90;;;3.70;;
10469;SDS011;5282;47.052;15.458;2023-06-14T07:56:03;4.33;;;4.10;;
10469;SDS011;5282;47.052;15.458;2023-06-14T07:58:32;4.30;;;4.10;;
10469;SDS011;5282;47.052;15.458;2023-06-14T08:01:00;4.43;;;4.23;;
10469;SDS011;5282;47.052;15.458;2023-06-14T08:03:31;4.37;;;4.20;;
10469;SDS011;5282;47.052;15.458;2023-06-14T08:05:58;4.27;;;4.00;;
10469;SDS011;5282;47.052;15.458;2023-06-14T08:08:28;4.60;;;4.40;;
10469;SDS011;5282;47.052;15.458;2023-06-14T08:10:58;5.00;;;3.83;;
10469;SDS011;5282;47.052;15.458;2023-06-14T08:13:24;4.70;;;3.80;;
10469;SDS011;5282;47.052;15.458;2023-06-14T08:15:52;3.60;;;3.50;;
10469;SDS011;5282;47.052;15.458;2023-06-14T08:18:20;3.93;;;3.63;;
10469;SDS011;5282;47.052;15.458;2023-06-14T08:20:47;3.97;;;3.87;;
10469;SDS011;5282;47.052;15.458;2023-06-14T08:23:13;4.00;;;3.80;;
10469;SDS011;5282;47.052;15.458;2023-06-14T08:25:41;3.33;;;3.23;;
10469;SDS011;5282;47.052;15.458;2023-06-14T08:28:08;4.00;;;3.80;;
10469;SDS011;5282;47.052;15.458;2023-06-14T08:30:34;3.67;;;3.47;;
10469;SDS011;5282;47.052;15.458;2023-06-14T08:33:01;4.40;;;4.20;;
10469;SDS011;5282;47.052;15.458;2023-06-14T08:35:29;4.50;;;4.20;;
10469;SDS011;5282;47.052;15.458;2023-06-14T08:37:56;4.60;;;4.40;;
10469;SDS011;5282;47.052;15.458;2023-06-14T08:40:23;4.43;;;4.23;;
10469;SDS011;5282;47.052;15.458;2023-06-14T08:42:51;5.43;;;5.13;;
10469;SDS011;5282;47.052;15.458;2023-06-14T08:45:19;5.23;;;4.57;;
10469;SDS011;5282;47.052;15.458;2023-06-14T08:47:46;5.13;;;4.83;;
10469;SDS011;5282;47.052;15.458;2023-06-14T08:50:19;5.20;;;4.90;;
10469;SDS011;5282;47.052;15.458;2023-06-14T08:52:48;5.00;;;4.70;;
10469;SDS011;5282;47.052;15.458;2023-06-14T08:55:20;5.30;;;5.00;;
10469;SDS011;5282;47.052;15.458;2023-06-14T08:57:51;5.63;;;5.33;;
10469;SDS011;5282;47.052;15.458;2023-06-14T09:00:19;5.03;;;4.80;;
10469;SDS011;5282;47.052;15.458;2023-06-14T09:02:48;5.67;;;5.03;;
10469;SDS011;5282;47.052;15.458;2023-06-14T09:05:21;5.33;;;5.00;;
10469;SDS011;5282;47.052;15.458;2023-06-14T09:07:50;6.20;;;5.60;;
10469;SDS011;5282;47.052;15.458;2023-06-14T09:10:18;6.00;;;5.70;;
10469;SDS011;5282;47.052;15.458;2023-06-14T09:12:46;5.90;;;5.60;;
10469;SDS011;5282;47.052;15.458;2023-06-14T09:15:13;5.93;;;5.57;;
10469;SDS011;5282;47.052;15.458;2023-06-14T09:17:40;5.90;;;5.40;;
10469;SDS011;5282;47.052;15.458;2023-06-14T09:20:08;6.20;;;5.87;;
10469;SDS011;5282;47.052;15.458;2023-06-14T09:22:36;6.33;;;5.87;;
10469;SDS011;5282;47.052;15.458;2023-06-14T09:25:06;5.83;;;5.43;;
10469;SDS011;5282;47.052;15.458;2023-06-14T09:27:35;5.83;;;5.53;;
10469;SDS011;5282;47.052;15.458;2023-06-14T09:30:05;5.57;;;5.30;;
10469;SDS011;5282;47.052;15.458;2023-06-14T09:32:36;6.30;;;5.80;;
10469;SDS011;5282;47.052;15.458;2023-06-14T09:35:03;5.40;;;5.10;;
10469;SDS011;5282;47.052;15.458;2023-06-14T09:37:32;5.73;;;5.37;;
10469;SDS011;5282;47.052;15.458;2023-06-14T09:39:59;5.60;;;5.40;;
10469;SDS011;5282;47.052;15.458;2023-06-14T09:42:27;5.67;;;5.37;;
10469;SDS011;5282;47.052;15.458;2023-06-14T09:44:55;5.43;;;5.13;;
10469;SDS011;5282;47.052;15.458;2023-06-14T09:47:23;5.27;;;5.07;;
10469;SDS011;5282;47.052;15.458;2023-06-14T09:49:50;5.47;;;5.20;;
10469;SDS011;5282;47.052;15.458;2023-06-14T09:52:20;5.00;;;4.70;;
10469;SDS011;5282;47.052;15.458;2023-06-14T09:54:48;5.07;;;4.77;;
10469;SDS011;5282;47.052;15.458;2023-06-14T09:57:16;5.20;;;4.90;;
10469;SDS011;5282;47.052;15.458;2023-06-14T09:59:48;4.83;;;4.57;;
10469;SDS011;5282;47.052;15.458;2023-06-14T10:02:22;4.87;;;4.57;;
10469;SDS011;5282;47.052;15.458;2023-06-14T10:04:53;5.43;;;5.13;;
10469;SDS011;5282;47.052;15.458;2023-06-14T10:07:26;5.30;;;5.07;;
10469;SDS011;5282;47.052;15.458;2023-06-14T10:09:56;4.80;;;4.60;;
10469;SDS011;5282;47.052;15.458;2023-06-14T10:12:24;5.00;;;4.70;;
10469;SDS011;5282;47.052;15.458;2023-06-14T10:14:54;5.13;;;4.90;;
10469;SDS011;5282;47.052;15.458;2023-06-14T10:17:24;5.20;;;4.90;;
10469;SDS011;5282;47.052;15.458;2023-06-14T10:19:55;4.83;;;4.63;;
10469;SDS011;5282;47.052;15.458;2023-06-14T10:22:33;5.17;;;4.87;;
10469;SDS011;5282;47.052;15.458;2023-06-14T10:25:06;4.60;;;4.40;;
10469;SDS011;5282;47.052;15.458;2023-06-14T10:27:37;4.80;;;4.60;;
10469;SDS011;5282;47.052;15.458;2023-06-14T10:30:07;4.63;;;4.37;;
10469;SDS011;5282;47.052;15.458;2023-06-14T10:32:35;4.33;;;4.23;;
10469;SDS011;5282;47.052;15.458;2023-06-14T10:35:04;4.50;;;4.20;;
10469;SDS011;5282;47.052;15.458;2023-06-14T10:37:32;4.60;;;4.40;;
10469;SDS011;5282;47.052;15.458;2023-06-14T10:39:59;4.33;;;4.13;;
10469;SDS011;5282;47.052;15.458;2023-06-14T10:42:31;3.93;;;3.83;;
10469;SDS011;5282;47.052;15.458;2023-06-14T10:44:58;4.40;;;4.20;;
10469;SDS011;5282;47.052;15.458;2023-06-14T10:47:28;3.77;;;3.67;;
10469;SDS011;5282;47.052;15.458;2023-06-14T10:49:57;4.50;;;4.20;;
10469;SDS011;5282;47.052;15.458;2023-06-14T10:52:32;3.70;;;3.50;;
10469;SDS011;5282;47.052;15.458;2023-06-14T10:55:02;4.00;;;3.80;;
10469;SDS011;5282;47.052;15.458;2023-06-14T10:57:35;3.37;;;3.23;;
10469;SDS011;5282;47.052;15.458;2023-06-14T11:00:03;3.33;;;3.13;;
10469;SDS011;5282;47.052;15.458;2023-06-14T11:05:52;3.10;;;3.00;;
10469;SDS011;5282;47.052;15.458;2023-06-14T11:11:25;3.50;;;3.40;;
10469;SDS011;5282;47.052;15.458;2023-06-14T11:14:00;3.50;;;3.40;;
10469;SDS011;5282;47.052;15.458;2023-06-14T11:16:28;3.60;;;3.40;;
10469;SDS011;5282;47.052;15.458;2023-06-14T11:18:55;3.37;;;3.20;;
10469;SDS011;5282;47.052;15.458;2023-06-14T11:21:23;3.10;;;3.00;;
10469;SDS011;5282;47.052;15.458;2023-06-14T11:23:58;3.63;;;3.50;;
10469;SDS011;5282;47.052;15.458;2023-06-14T11:26:28;3.30;;;3.10;;
10469;SDS011;5282;47.052;15.458;2023-06-14T11:28:56;3.30;;;3.20;;
10469;SDS011;5282;47.052;15.458;2023-06-14T11:31:26;3.17;;;3.07;;
10469;SDS011;5282;47.052;15.458;2023-06-14T11:33:54;3.33;;;3.23;;
10469;SDS011;5282;47.052;15.458;2023-06-14T11:36:27;3.30;;;3.20;;
10469;SDS011;5282;47.052;15.458;2023-06-14T11:38:59;3.50;;;3.30;;
10469;SDS011;5282;47.052;15.458;2023-06-14T11:41:32;3.83;;;3.63;;
10469;SDS011;5282;47.052;15.458;2023-06-14T11:44:00;3.37;;;3.20;;
10469;SDS011;5282;47.052;15.458;2023-06-14T11:46:27;3.20;;;3.10;;
10469;SDS011;5282;47.052;15.458;2023-06-14T11:48:54;3.30;;;3.20;;
10469;SDS011;5282;47.052;15.458;2023-06-14T11:51:21;3.40;;;3.30;;
10469;SDS011;5282;47.052;15.458;2023-06-14T11:53:49;3.43;;;3.33;;
10469;SDS011;5282;47.052;15.458;2023-06-14T11:56:16;3.50;;;3.40;;
10469;SDS011;5282;47.052;15.458;2023-06-14T11:58:45;3.63;;;3.53;;
10469;SDS011;5282;47.052;15.458;2023-06-14T12:01:14;3.60;;;3.30;;
10469;SDS011;5282;47.052;15.458;2023-06-14T12:03:47;3.37;;;3.20;;
10469;SDS011;5282;47.052;15.458;2023-06-14T12:06:14;3.40;;;3.10;;
10469;SDS011;5282;47.052;15.458;2023-06-14T12:08:43;3.20;;;3.10;;
10469;SDS011;5282;47.052;15.458;2023-06-14T12:11:13;3.10;;;3.00;;
10469;SDS011;5282;47.052;15.458;2023-06-14T12:13:42;3.60;;;3.50;;
10469;SDS011;5282;47.052;15.458;2023-06-14T12:16:11;3.37;;;3.23;;
10469;SDS011;5282;47.052;15.458;2023-06-14T12:18:38;3.13;;;3.03;;
10469;SDS011;5282;47.052;15.458;2023-06-14T12:21:10;3.53;;;2.90;;
10469;SDS011;5282;47.052;15.458;2023-06-14T12:23:44;3.47;;;3.37;;
10469;SDS011;5282;47.052;15.458;2023-06-14T12:26:14;3.40;;;3.20;;
10469;SDS011;5282;47.052;15.458;2023-06-14T12:28:42;2.97;;;2.87;;
10469;SDS011;5282;47.052;15.458;2023-06-14T12:31:10;3.43;;;3.23;;
10469;SDS011;5282;47.052;15.458;2023-06-14T12:33:38;3.13;;;2.93;;
10469;SDS011;5282;47.052;15.458;2023-06-14T12:36:06;3.73;;;3.43;;
10469;SDS011;5282;47.052;15.458;2023-06-14T12:38:34;3.40;;;3.30;;
10469;SDS011;5282;47.052;15.458;2023-06-14T12:41:03;3.10;;;3.00;;
10469;SDS011;5282;47.052;15.458;2023-06-14T12:43:32;3.50;;;3.37;;
10469;SDS011;5282;47.052;15.458;2023-06-14T12:45:59;3.17;;;3.07;;
10469;SDS011;5282;47.052;15.458;2023-06-14T12:48:27;3.20;;;3.10;;
10469;SDS011;5282;47.052;15.458;2023-06-14T12:50:55;3.40;;;3.30;;
10469;SDS011;5282;47.052;15.458;2023-06-14T12:53:22;3.00;;;2.80;;
10469;SDS011;5282;47.052;15.458;2023-06-14T12:55:49;3.10;;;3.00;;
10469;SDS011;5282;47.052;15.458;2023-06-14T12:58:16;3.23;;;3.03;;
10469;SDS011;5282;47.052;15.458;2023-06-14T13:00:46;3.60;;;3.40;;
10469;SDS011;5282;47.052;15.458;2023-06-14T13:03:13;3.40;;;3.20;;
10469;SDS011;5282;47.052;15.458;2023-06-14T13:05:40;3.10;;;3.00;;
10469;SDS011;5282;47.052;15.458;2023-06-14T13:08:10;2.90;;;2.80;;
10469;SDS011;5282;47.052;15.458;2023-06-14T13:10:37;3.23;;;3.07;;
10469;SDS011;5282;47.052;15.458;2023-06-14T13:13:04;3.23;;;3.13;;
10469;SDS011;5282;47.052;15.458;2023-06-14T13:15:32;3.20;;;3.10;;
10469;SDS011;5282;47.052;15.458;2023-06-14T13:18:01;3.50;;;3.30;;
10469;SDS011;5282;47.052;15.458;2023-06-14T13:20:28;3.30;;;3.00;;
10469;SDS011;5282;47.052;15.458;2023-06-14T13:22:55;3.50;;;3.13;;
10469;SDS011;5282;47.052;15.458;2023-06-14T13:25:22;3.17;;;3.07;;
10469;SDS011;5282;47.052;15.458;2023-06-14T13:27:49;3.13;;;3.03;;
10469;SDS011;5282;47.052;15.458;2023-06-14T13:30:16;3.63;;;3.43;;
10469;SDS011;5282;47.052;15.458;2023-06-14T13:32:43;3.37;;;3.17;;
10469;SDS011;5282;47.052;15.458;2023-06-14T13:35:11;3.57;;;3.30;;
10469;SDS011;5282;47.052;15.458;2023-06-14T13:37:38;3.50;;;3.40;;
10469;SDS011;5282;47.052;15.458;2023-06-14T13:40:05;3.60;;;3.40;;
10469;SDS011;5282;47.052;15.458;2023-06-14T13:42:33;3.47;;;3.37;;
10469;SDS011;5282;47.052;15.458;2023-06-14T13:45:01;3.27;;;3.17;;
10469;SDS011;5282;47.052;15.458;2023-06-14T13:47:32;3.13;;;3.03;;
10469;SDS011;5282;47.052;15.458;2023-06-14T13:49:59;3.20;;;3.10;;
10469;SDS011;5282;47.052;15.458;2023-06-14T13:52:30;3.67;;;3.57;;
10469;SDS011;5282;47.052;15.458;2023-06-14T13:54:57;3.33;;;3.17;;
10469;SDS011;5282;47.052;15.458;2023-06-14T13:57:25;3.53;;;3.43;;
10469;SDS011;5282;47.052;15.458;2023-06-14T13:59:52;3.53;;;3.33;;
10469;SDS011;5282;47.052;15.458;2023-06-14T14:02:20;3.17;;;3.07;;
10469;SDS011;5282;47.052;15.458;2023-06-14T14:04:48;3.20;;;3.10;;
10469;SDS011;5282;47.052;15.458;2023-06-14T14:07:19;3.07;;;2.97;;
10469;SDS011;5282;47.052;15.458;2023-06-14T14:09:48;3.70;;;3.40;;
10469;SDS011;5282;47.052;15.458;2023-06-14T14:12:15;3.30;;;3.20;;
10469;SDS011;5282;47.052;15.458;2023-06-14T14:14:42;3.00;;;2.90;;
10469;SDS011;5282;47.052;15.458;2023-06-14T14:17:09;3.47;;;3.27;;
10469;SDS011;5282;47.052;15.458;2023-06-14T14:19:36;3.33;;;3.23;;
10469;SDS011;5282;47.052;15.458;2023-06-14T14:22:02;3.03;;;2.90;;
10469;SDS011;5282;47.052;15.458;2023-06-14T14:24:30;3.60;;;3.40;;
10469;SDS011;5282;47.052;15.458;2023-06-14T14:26:58;3.40;;;3.27;;
10469;SDS011;5282;47.052;15.458;2023-06-14T14:29:25;3.50;;;3.20;;
10469;SDS011;5282;47.052;15.458;2023-06-14T14:31:54;3.63;;;3.50;;
10469;SDS011;5282;47.052;15.458;2023-06-14T14:34:21;3.30;;;3.00;;
10469;SDS011;5282;47.052;15.458;2023-06-14T14:36:48;3.10;;;3.00;;
10469;SDS011;5282;47.052;15.458;2023-06-14T14:39:15;3.30;;;3.10;;
10469;SDS011;5282;47.052;15.458;2023-06-14T14:41:42;3.33;;;3.13;;
10469;SDS011;5282;47.052;15.458;2023-06-14T14:44:10;3.63;;;3.43;;
10469;SDS011;5282;47.052;15.458;2023-06-14T14:46:39;3.67;;;3.50;;
10469;SDS011;5282;47.052;15.458;2023-06-14T14:49:06;3.60;;;3.40;;
10469;SDS011;5282;47.052;15.458;2023-06-14T14:51:33;3.17;;;3.00;;
10469;SDS011;5282;47.052;15.458;2023-06-14T14:54:00;3.27;;;3.17;;
10469;SDS011;5282;47.052;15.458;2023-06-14T14:56:27;3.47;;;3.27;;
10469;SDS011;5282;47.052;15.458;2023-06-14T14:58:54;3.63;;;3.47;;
10469;SDS011;5282;47.052;15.458;2023-06-14T15:01:22;3.20;;;3.10;;